Time;durP1;ratioP1;P1;durP2;ratioP2;P2;SDS_P1;SDS_P2;PMS_P1;PMS_P2;Temp;Humidity;BMP_temperature;BMP_pressure;BME280_temperature;BME280_humidity;BME280_pressure;Samples;Min_cycle;Max_cycle;Signal;HPM_P1;HPM_P2
2023/05/24 00:01:15;;;;;;;7.78;1.60;;;9.70;99.90;;;;;;5081118;28;20111;-40
2023/05/24 00:03:41;;;;;;;4.78;1.60;;;9.70;99.90;;;;;;5080197;28;20136;-40
2023/05/24 00:06:07;;;;;;;9.52;2.17;;;9.80;99.90;;;;;;5080773;28;20096;-41
2023/05/24 00:08:33;;;;;;;6.75;2.22;;;9.90;99.90;;;;;;5081219;28;20036;-40
2023/05/24 00:10:59;;;;;;;5.47;1.77;;;9.90;99.90;;;;;;5086558;28;20047;-40
2023/05/24 00:13:27;;;;;;;5.40;1.75;;;10.00;99.90;;;;;;5084541;28;20789;-41
2023/05/24 00:15:56;;;;;;;7.70;1.92;;;10.00;99.90;;;;;;5082324;28;20028;-37
2023/05/24 00:18:22;;;;;;;8.02;2.13;;;10.00;99.90;;;;;;5080905;28;20042;-40
2023/05/24 00:20:48;;;;;;;8.82;2.53;;;9.90;99.90;;;;;;5081441;28;20771;-41
2023/05/24 00:23:13;;;;;;;5.88;1.90;;;9.90;99.90;;;;;;5082153;28;20024;-40
2023/05/24 00:25:39;;;;;;;5.85;1.80;;;9.90;99.90;;;;;;5081432;28;20020;-41
2023/05/24 00:28:04;;;;;;;7.32;1.90;;;9.80;99.90;;;;;;5080633;28;20111;-40
2023/05/24 00:30:30;;;;;;;8.55;2.17;;;9.80;99.90;;;;;;5081543;28;20110;-40
2023/05/24 00:32:55;;;;;;;4.72;1.90;;;9.80;99.90;;;;;;5082194;28;20019;-39
2023/05/24 00:35:21;;;;;;;7.22;1.85;;;9.80;99.90;;;;;;5081397;28;20035;-41
2023/05/24 00:37:46;;;;;;;4.82;1.77;;;9.80;99.90;;;;;;5080754;28;20023;-41
2023/05/24 00:40:13;;;;;;;8.02;1.90;;;9.70;99.90;;;;;;5081831;28;20387;-40
2023/05/24 00:42:38;;;;;;;6.63;1.83;;;9.70;99.90;;;;;;5079384;28;20523;-39
2023/05/24 00:45:05;;;;;;;7.90;1.90;;;9.70;99.90;;;;;;5081998;28;20024;-40
2023/05/24 00:47:31;;;;;;;6.50;2.05;;;9.70;99.90;;;;;;5081001;28;20069;-40
2023/05/24 00:49:56;;;;;;;6.25;2.03;;;9.60;99.90;;;;;;5081354;28;20587;-40
2023/05/24 00:52:22;;;;;;;5.55;2.08;;;9.50;99.90;;;;;;5081114;28;20051;-41
2023/05/24 00:54:47;;;;;;;6.05;2.10;;;9.50;99.90;;;;;;5080222;28;20084;-41
2023/05/24 00:57:13;;;;;;;6.30;2.53;;;9.50;99.90;;;;;;5080351;28;20051;-42
2023/05/24 00:59:43;;;;;;;8.35;2.13;;;9.50;99.90;;;;;;5079785;28;20044;-40
2023/05/24 01:02:09;;;;;;;5.82;1.80;;;9.50;99.90;;;;;;5081214;28;20085;-40
2023/05/24 01:04:34;;;;;;;6.50;2.13;;;9.50;99.90;;;;;;5080861;28;20032;-41
2023/05/24 01:07:15;;;;;;;8.80;2.45;;;9.50;99.90;;;;;;5077265;28;20147;-41
2023/05/24 01:09:57;;;;;;;6.13;2.17;;;9.50;99.90;;;;;;5079610;28;20142;-42
2023/05/24 01:13:03;;;;;;;5.95;2.00;;;9.50;99.90;;;;;;5080473;28;20035;-41
2023/05/24 01:15:59;;;;;;;7.05;2.75;;;9.40;99.90;;;;;;5065570;28;20127;-39
2023/05/24 01:18:31;;;;;;;8.63;2.22;;;9.40;99.90;;;;;;5060213;28;20361;-39
2023/05/24 01:21:30;;;;;;;7.47;2.45;;;9.40;99.90;;;;;;5077640;28;20051;-41
2023/05/24 01:24:11;;;;;;;7.00;2.17;;;9.30;99.90;;;;;;5070457;28;20047;-40
2023/05/24 01:26:47;;;;;;;5.68;1.50;;;9.30;99.90;;;;;;5078292;28;20057;-41
2023/05/24 01:29:13;;;;;;;6.85;1.80;;;9.20;99.90;;;;;;5079209;28;20032;-40
2023/05/24 01:31:40;;;;;;;8.70;1.95;;;9.10;99.90;;;;;;5079421;28;20470;-40
2023/05/24 01:34:05;;;;;;;7.95;1.60;;;9.00;99.90;;;;;;5081103;28;20479;-41
2023/05/24 01:36:31;;;;;;;10.00;1.98;;;9.00;99.90;;;;;;5079604;28;20051;-41
2023/05/24 01:38:56;;;;;;;3.78;2.10;;;8.90;99.90;;;;;;5079920;28;20724;-40
2023/05/24 01:42:06;;;;;;;5.57;2.50;;;8.80;99.90;;;;;;5079959;28;20133;-41
2023/05/24 01:45:07;;;;;;;5.47;1.80;;;8.80;99.90;;;;;;5052681;28;20048;-39
2023/05/24 01:47:42;;;;;;;7.88;2.70;;;8.80;99.90;;;;;;5044342;28;20354;-40
2023/05/24 01:50:19;;;;;;;7.13;1.90;;;8.80;99.90;;;;;;5064994;28;20038;-41
2023/05/24 01:52:45;;;;;;;4.15;1.63;;;8.80;99.90;;;;;;5080181;28;20107;-40
2023/05/24 01:55:15;;;;;;;8.35;1.92;;;8.80;99.90;;;;;;5079829;28;20036;-40
2023/05/24 01:57:44;;;;;;;6.25;1.98;;;8.80;99.90;;;;;;5079796;28;20036;-41
2023/05/24 02:00:11;;;;;;;6.00;1.92;;;8.80;99.90;;;;;;5081283;28;20719;-42
2023/05/24 02:02:37;;;;;;;6.63;2.65;;;8.70;99.90;;;;;;5079188;28;20024;-40
2023/05/24 02:05:03;;;;;;;6.72;1.92;;;8.80;99.90;;;;;;5080322;28;20032;-40
2023/05/24 02:07:29;;;;;;;7.68;2.80;;;8.80;99.90;;;;;;5080440;28;20031;-41
2023/05/24 02:09:54;;;;;;;7.90;2.22;;;8.80;99.90;;;;;;5084216;28;20391;-38
2023/05/24 02:12:20;;;;;;;8.52;2.38;;;8.90;99.90;;;;;;5083329;28;20020;-41
2023/05/24 02:14:49;;;;;;;9.68;3.30;;;8.90;99.90;;;;;;5083897;28;20078;-41
2023/05/24 02:17:16;;;;;;;8.60;2.05;;;8.90;99.90;;;;;;5081499;28;20028;-40
2023/05/24 02:19:42;;;;;;;8.02;2.25;;;8.90;99.90;;;;;;5081859;28;20020;-41
2023/05/24 02:22:08;;;;;;;9.18;2.25;;;8.90;99.90;;;;;;5082831;28;20099;-39
2023/05/24 02:24:33;;;;;;;8.18;2.53;;;8.90;99.90;;;;;;5083359;28;20127;-40
2023/05/24 02:26:59;;;;;;;8.68;2.67;;;8.80;99.90;;;;;;5082635;28;20112;-41
2023/05/24 02:29:26;;;;;;;8.88;3.03;;;8.80;99.90;;;;;;5083904;28;20098;-41
2023/05/24 02:31:55;;;;;;;7.07;2.55;;;8.80;99.90;;;;;;5084181;28;20020;-40
2023/05/24 02:34:22;;;;;;;6.97;2.60;;;8.80;99.90;;;;;;5083032;28;20729;-39
2023/05/24 02:36:48;;;;;;;4.28;2.33;;;8.90;99.90;;;;;;5083417;28;20467;-40
2023/05/24 02:39:16;;;;;;;9.68;2.42;;;8.90;99.90;;;;;;5083755;28;20016;-41
2023/05/24 02:41:45;;;;;;;6.63;2.50;;;8.90;99.90;;;;;;5081955;28;20012;-40
2023/05/24 02:44:10;;;;;;;9.10;2.88;;;8.90;99.90;;;;;;5083584;28;20031;-40
2023/05/24 02:46:36;;;;;;;9.82;2.47;;;8.90;99.90;;;;;;5082986;28;20074;-40
2023/05/24 02:49:02;;;;;;;8.75;2.55;;;8.90;99.90;;;;;;5081882;28;20040;-41
2023/05/24 02:51:27;;;;;;;7.78;2.42;;;8.90;99.90;;;;;;5083922;28;20020;-41
2023/05/24 02:53:53;;;;;;;10.70;2.63;;;8.90;99.90;;;;;;5084098;28;20020;-41
2023/05/24 02:56:18;;;;;;;8.82;3.38;;;8.90;99.90;;;;;;5083114;28;20052;-40
2023/05/24 02:58:44;;;;;;;6.10;2.00;;;8.90;99.90;;;;;;5083981;28;20058;-41
2023/05/24 03:01:14;;;;;;;4.32;2.30;;;8.90;99.90;;;;;;5081503;28;20031;-41
2023/05/24 03:03:39;;;;;;;8.80;2.42;;;8.80;99.90;;;;;;5083367;28;20059;-42
2023/05/24 03:06:15;;;;;;;8.05;2.40;;;8.80;99.90;;;;;;5076013;28;20108;-39
2023/05/24 03:08:41;;;;;;;8.80;2.38;;;8.70;99.90;;;;;;5072576;28;20040;-39
2023/05/24 03:11:07;;;;;;;7.97;2.70;;;8.70;99.90;;;;;;5078658;28;20028;-40
2023/05/24 03:13:32;;;;;;;7.10;2.72;;;8.70;99.90;;;;;;5083474;28;20521;-41
2023/05/24 03:16:01;;;;;;;5.57;2.65;;;8.80;99.90;;;;;;5082943;28;20028;-40
2023/05/24 03:18:26;;;;;;;8.98;3.28;;;8.80;99.90;;;;;;5080872;28;20028;-39
2023/05/24 03:21:01;;;;;;;8.13;3.15;;;8.70;99.90;;;;;;5083218;28;20056;-40
2023/05/24 03:23:26;;;;;;;6.05;2.20;;;8.70;99.90;;;;;;5082200;28;20024;-41
2023/05/24 03:25:52;;;;;;;8.77;2.78;;;8.70;99.90;;;;;;5082440;28;20035;-41
2023/05/24 03:28:20;;;;;;;7.50;2.50;;;8.70;99.90;;;;;;5081774;28;20111;-41
2023/05/24 03:30:46;;;;;;;8.68;2.92;;;8.70;99.90;;;;;;5075475;28;20036;-39
2023/05/24 03:33:12;;;;;;;9.57;2.67;;;8.70;99.90;;;;;;5061939;28;20156;-37
2023/05/24 03:35:37;;;;;;;9.63;2.97;;;8.70;99.90;;;;;;5081157;28;20023;-39
2023/05/24 03:38:03;;;;;;;6.57;2.67;;;8.70;99.90;;;;;;5080570;28;20028;-41
2023/05/24 03:40:31;;;;;;;6.60;2.58;;;8.70;99.90;;;;;;5077402;28;20036;-40
2023/05/24 03:42:56;;;;;;;9.45;2.67;;;8.70;99.90;;;;;;5077756;28;20036;-40
2023/05/24 03:45:22;;;;;;;7.28;2.85;;;8.60;99.90;;;;;;5077036;28;20106;-39
2023/05/24 03:47:48;;;;;;;7.32;3.08;;;8.70;99.90;;;;;;5083083;28;20048;-42
2023/05/24 03:50:13;;;;;;;7.75;2.50;;;8.70;99.90;;;;;;5081053;28;20425;-41
2023/05/24 03:52:39;;;;;;;7.85;2.63;;;8.70;99.90;;;;;;5082397;28;20821;-40
2023/05/24 03:55:05;;;;;;;8.40;3.10;;;8.70;99.90;;;;;;5081914;28;20420;-41
2023/05/24 03:57:30;;;;;;;6.45;2.70;;;8.70;99.90;;;;;;5081123;28;20044;-41
2023/05/24 03:59:56;;;;;;;6.45;2.80;;;8.70;99.90;;;;;;5082535;28;20043;-39
2023/05/24 04:02:31;;;;;;;8.23;2.40;;;8.60;99.90;;;;;;5082056;28;20043;-41
2023/05/24 04:04:56;;;;;;;9.38;2.60;;;8.60;99.90;;;;;;5081306;28;20523;-39
2023/05/24 04:07:23;;;;;;;8.48;2.90;;;8.60;99.90;;;;;;5081558;28;20056;-42
2023/05/24 04:09:49;;;;;;;10.13;2.88;;;8.60;99.90;;;;;;5081575;28;20120;-41
2023/05/24 04:12:14;;;;;;;7.90;2.67;;;8.50;99.90;;;;;;5081638;28;20019;-41
2023/05/24 04:14:40;;;;;;;6.40;2.83;;;8.50;99.90;;;;;;5082274;28;20472;-40
2023/05/24 04:17:06;;;;;;;7.95;3.15;;;8.50;99.90;;;;;;5081950;28;20051;-40
2023/05/24 04:19:32;;;;;;;8.90;2.95;;;8.40;99.90;;;;;;5080784;28;20028;-43
2023/05/24 04:21:57;;;;;;;6.55;2.70;;;8.40;99.90;;;;;;5082203;28;20035;-41
2023/05/24 04:24:23;;;;;;;9.52;3.30;;;8.40;99.90;;;;;;5081433;28;20686;-42
2023/05/24 04:26:49;;;;;;;12.38;3.85;;;8.50;99.90;;;;;;5075356;28;20021;-41
2023/05/24 04:29:14;;;;;;;8.85;3.17;;;8.40;99.90;;;;;;5081205;28;20040;-41
2023/05/24 04:31:43;;;;;;;10.52;3.15;;;8.40;99.90;;;;;;5079376;28;20015;-40
2023/05/24 04:34:11;;;;;;;8.45;3.17;;;8.40;99.90;;;;;;5081310;28;20024;-45
2023/05/24 04:36:37;;;;;;;10.25;3.65;;;8.40;99.90;;;;;;5079565;28;20024;-40
2023/05/24 04:39:03;;;;;;;10.20;3.38;;;8.50;99.90;;;;;;5080576;28;20062;-40
2023/05/24 04:41:34;;;;;;;8.82;3.45;;;8.50;99.90;;;;;;5079370;28;20025;-41
2023/05/24 04:44:03;;;;;;;10.82;4.35;;;8.50;99.90;;;;;;5079605;28;20036;-39
2023/05/24 04:46:30;;;;;;;10.57;3.33;;;8.50;99.90;;;;;;5067222;28;20032;-40
2023/05/24 04:48:55;;;;;;;10.63;3.40;;;8.50;99.90;;;;;;5081231;28;20046;-38
2023/05/24 04:51:22;;;;;;;10.73;3.58;;;8.50;99.90;;;;;;5080713;28;20020;-42
2023/05/24 04:53:47;;;;;;;9.27;3.05;;;8.50;99.90;;;;;;5081239;28;20027;-41
2023/05/24 04:56:13;;;;;;;10.90;3.90;;;8.60;99.90;;;;;;5079736;28;20638;-41
2023/05/24 04:58:40;;;;;;;10.00;3.70;;;8.60;99.90;;;;;;5076129;28;20152;-41
2023/05/24 05:01:05;;;;;;;7.07;3.13;;;8.60;99.90;;;;;;5079470;28;20038;-40
2023/05/24 05:03:31;;;;;;;10.52;3.28;;;8.70;99.90;;;;;;5079878;28;20028;-42
2023/05/24 05:05:56;;;;;;;10.95;3.53;;;8.80;99.90;;;;;;5081690;28;20028;-39
2023/05/24 05:08:22;;;;;;;10.07;4.38;;;8.80;99.90;;;;;;5080429;28;20547;-41
2023/05/24 05:10:47;;;;;;;14.75;5.20;;;8.80;99.90;;;;;;5081654;28;20498;-39
2023/05/24 05:13:13;;;;;;;11.98;4.50;;;8.80;99.90;;;;;;5074274;28;20020;-40
2023/05/24 05:15:38;;;;;;;10.38;3.78;;;8.70;99.90;;;;;;5077943;28;20115;-41
2023/05/24 05:18:04;;;;;;;9.68;3.20;;;8.80;99.90;;;;;;5080781;28;20520;-41
2023/05/24 05:20:30;;;;;;;7.45;3.70;;;8.80;99.90;;;;;;5080855;28;20851;-41
2023/05/24 05:22:55;;;;;;;11.45;4.40;;;8.90;99.90;;;;;;5080908;28;20029;-41
2023/05/24 05:25:21;;;;;;;10.65;4.18;;;8.90;99.90;;;;;;5073479;28;20845;-41
2023/05/24 05:27:46;;;;;;;10.43;3.75;;;8.90;99.90;;;;;;5067264;28;20024;-41
2023/05/24 05:30:12;;;;;;;13.63;4.53;;;8.90;99.90;;;;;;5079428;28;20036;-38
2023/05/24 05:32:38;;;;;;;11.40;3.80;;;9.00;99.90;;;;;;5064062;28;20101;-40
2023/05/24 05:35:04;;;;;;;11.88;3.65;;;9.00;99.90;;;;;;5080805;28;20067;-41
2023/05/24 05:37:30;;;;;;;11.93;4.13;;;9.00;99.90;;;;;;5079308;28;20035;-40
2023/05/24 05:39:55;;;;;;;12.00;3.80;;;9.10;99.90;;;;;;5080821;28;20032;-40
2023/05/24 05:42:21;;;;;;;8.20;3.95;;;9.10;99.90;;;;;;5081168;28;20024;-40
2023/05/24 05:44:46;;;;;;;13.60;4.22;;;9.20;99.90;;;;;;5082929;28;20380;-40
2023/05/24 05:47:12;;;;;;;8.35;3.95;;;9.20;99.90;;;;;;5083102;28;20040;-41
2023/05/24 05:49:37;;;;;;;10.07;3.10;;;9.30;99.90;;;;;;5081896;28;20395;-41
2023/05/24 05:52:06;;;;;;;10.48;3.72;;;9.40;99.90;;;;;;5083174;28;20028;-41
2023/05/24 05:54:32;;;;;;;11.27;3.47;;;9.50;99.90;;;;;;5083355;28;20435;-42
2023/05/24 05:56:57;;;;;;;8.38;3.30;;;9.70;99.90;;;;;;5083832;28;20565;-41
2023/05/24 05:59:23;;;;;;;8.98;3.53;;;9.80;99.90;;;;;;5082968;28;20035;-41
2023/05/24 06:01:49;;;;;;;10.73;3.97;;;9.90;99.90;;;;;;5084641;28;20023;-41
2023/05/24 06:04:15;;;;;;;8.85;3.35;;;10.00;99.90;;;;;;5083579;28;20081;-41
2023/05/24 06:06:40;;;;;;;9.52;3.15;;;10.00;99.90;;;;;;5082490;28;20038;-40
2023/05/24 06:09:07;;;;;;;9.88;3.72;;;10.10;99.90;;;;;;5082374;28;20032;-41
2023/05/24 06:11:32;;;;;;;8.50;3.22;;;10.30;99.90;;;;;;5082367;28;20027;-40
2023/05/24 06:13:58;;;;;;;6.22;2.88;;;10.40;99.90;;;;;;5082732;28;20090;-41
2023/05/24 06:16:23;;;;;;;7.47;2.80;;;10.50;99.90;;;;;;5083684;28;20028;-40
2023/05/24 06:18:49;;;;;;;9.50;3.25;;;10.50;99.90;;;;;;5083293;28;20039;-40
2023/05/24 06:21:16;;;;;;;11.25;2.92;;;10.70;99.90;;;;;;5082027;28;20089;-41
2023/05/24 06:23:41;;;;;;;11.05;3.90;;;10.70;99.90;;;;;;5082153;28;20024;-42
2023/05/24 06:26:10;;;;;;;10.93;3.88;;;10.70;99.90;;;;;;5082547;28;20036;-42
2023/05/24 06:28:36;;;;;;;11.80;3.80;;;10.80;99.90;;;;;;5081901;28;20116;-40
2023/05/24 06:31:02;;;;;;;10.30;3.45;;;10.90;99.90;;;;;;5082004;28;20834;-40
2023/05/24 06:33:28;;;;;;;9.85;3.05;;;11.00;99.90;;;;;;5082064;28;20024;-42
2023/05/24 06:35:54;;;;;;;9.93;3.08;;;11.20;99.90;;;;;;5082760;28;20074;-42
2023/05/24 06:38:19;;;;;;;9.63;2.67;;;11.30;99.90;;;;;;5083092;28;20521;-39
2023/05/24 06:40:45;;;;;;;11.32;3.45;;;11.50;99.90;;;;;;5080628;28;20323;-41
2023/05/24 06:43:17;;;;;;;8.15;3.35;;;11.50;99.90;;;;;;5082401;28;20417;-40
2023/05/24 06:45:48;;;;;;;6.68;3.15;;;11.60;99.90;;;;;;5077371;28;20075;-40
2023/05/24 06:48:14;;;;;;;8.70;2.85;;;11.70;99.90;;;;;;5083424;28;20039;-41
2023/05/24 06:50:41;;;;;;;9.25;3.50;;;11.80;99.90;;;;;;5082296;28;20032;-41
2023/05/24 06:53:06;;;;;;;9.40;2.90;;;11.80;99.90;;;;;;5082300;28;20368;-40
2023/05/24 06:55:32;;;;;;;9.55;3.30;;;11.90;99.90;;;;;;5081263;28;20043;-41
2023/05/24 06:57:57;;;;;;;9.40;4.15;;;11.90;99.90;;;;;;5081064;28;20133;-40
2023/05/24 07:00:23;;;;;;;7.63;3.03;;;12.00;99.90;;;;;;5079904;28;21509;-40
2023/05/24 07:02:49;;;;;;;9.93;3.50;;;12.10;99.90;;;;;;5082905;28;20516;-41
2023/05/24 07:05:14;;;;;;;11.02;3.15;;;12.20;99.90;;;;;;5082859;28;20044;-42
2023/05/24 07:07:41;;;;;;;12.23;3.88;;;12.30;99.90;;;;;;5080999;28;20095;-41
2023/05/24 07:10:13;;;;;;;10.52;3.83;;;12.40;99.90;;;;;;5083517;28;20040;-42
2023/05/24 07:12:39;;;;;;;9.75;3.60;;;12.50;99.90;;;;;;5081577;28;20446;-42
2023/05/24 07:15:06;;;;;;;8.20;2.85;;;12.50;99.90;;;;;;5082076;28;20020;-42
2023/05/24 07:17:31;;;;;;;11.90;4.03;;;12.50;99.90;;;;;;5082043;28;20032;-42
2023/05/24 07:19:57;;;;;;;9.82;3.85;;;12.70;99.90;;;;;;5083158;28;20036;-42
2023/05/24 07:22:24;;;;;;;10.25;3.90;;;12.70;99.90;;;;;;5079808;28;20024;-42
2023/05/24 07:24:50;;;;;;;7.75;3.50;;;12.80;99.90;;;;;;5081797;28;20392;-42
2023/05/24 07:27:15;;;;;;;12.38;3.75;;;12.90;99.90;;;;;;5081625;28;20542;-42
2023/05/24 07:29:41;;;;;;;9.02;3.40;;;13.00;99.90;;;;;;5080822;28;20408;-40
2023/05/24 07:32:07;;;;;;;12.05;3.65;;;13.20;99.90;;;;;;5082628;28;20028;-42
2023/05/24 07:34:33;;;;;;;11.10;3.78;;;13.30;99.90;;;;;;5082840;28;20039;-43
2023/05/24 07:37:00;;;;;;;9.80;3.33;;;13.30;99.90;;;;;;5081182;28;20094;-42
2023/05/24 07:39:26;;;;;;;10.93;3.75;;;13.30;99.90;;;;;;5082183;28;20027;-44
2023/05/24 07:41:54;;;;;;;12.68;3.78;;;13.30;99.90;;;;;;5081783;28;20475;-41
2023/05/24 07:44:20;;;;;;;15.27;3.60;;;13.30;99.90;;;;;;5077644;28;20024;-45
2023/05/24 07:46:45;;;;;;;8.43;2.88;;;13.30;99.90;;;;;;5080831;28;20594;-43
2023/05/24 07:49:11;;;;;;;9.73;3.00;;;13.30;99.90;;;;;;5078412;28;20106;-41
2023/05/24 07:51:37;;;;;;;11.63;5.10;;;13.40;99.90;;;;;;5065225;28;20153;-42
2023/05/24 07:54:03;;;;;;;8.77;3.25;;;13.50;99.90;;;;;;5078828;28;20038;-40
2023/05/24 07:56:29;;;;;;;12.93;3.55;;;13.50;99.90;;;;;;5081053;28;20052;-42
2023/05/24 07:59:02;;;;;;;8.73;2.78;;;13.60;99.90;;;;;;5081544;28;20070;-43
2023/05/24 08:01:28;;;;;;;7.15;2.72;;;13.70;99.90;;;;;;5065188;28;20139;-40
2023/05/24 08:03:55;;;;;;;11.57;3.30;;;13.80;99.90;;;;;;5073826;28;20392;-40
2023/05/24 08:06:21;;;;;;;9.93;2.97;;;13.90;99.90;;;;;;5079995;28;20032;-41
2023/05/24 08:08:47;;;;;;;7.60;2.72;;;13.90;99.90;;;;;;5080847;28;20040;-40
2023/05/24 08:11:12;;;;;;;9.07;2.67;;;14.00;99.90;;;;;;5080986;28;20032;-44
2023/05/24 08:13:38;;;;;;;9.20;2.97;;;14.10;99.90;;;;;;5080493;28;20089;-42
2023/05/24 08:16:03;;;;;;;6.82;2.38;;;14.20;99.90;;;;;;5080325;28;20067;-43
2023/05/24 08:18:29;;;;;;;9.50;2.58;;;14.30;99.90;;;;;;5067886;28;20073;-42
2023/05/24 08:20:55;;;;;;;7.15;2.50;;;14.30;99.90;;;;;;5081164;28;20375;-42
2023/05/24 08:23:20;;;;;;;6.97;2.58;;;14.30;99.90;;;;;;5081913;28;20028;-41
2023/05/24 08:25:46;;;;;;;6.38;2.70;;;14.30;99.90;;;;;;5080947;28;20020;-43
2023/05/24 08:28:12;;;;;;;6.93;2.70;;;14.40;99.90;;;;;;5081642;28;20716;-42
2023/05/24 08:30:37;;;;;;;9.32;2.95;;;14.50;99.90;;;;;;5080356;28;20028;-41
2023/05/24 08:33:03;;;;;;;8.55;2.42;;;14.50;99.90;;;;;;5072035;28;20063;-42
2023/05/24 08:35:28;;;;;;;7.75;2.67;;;14.50;99.90;;;;;;5078393;28;20118;-42
2023/05/24 08:37:54;;;;;;;10.02;3.20;;;14.60;99.90;;;;;;5082007;28;20031;-41
2023/05/24 08:40:22;;;;;;;6.93;2.72;;;14.70;99.90;;;;;;5076334;28;20032;-42
2023/05/24 08:42:49;;;;;;;7.55;3.08;;;14.70;99.90;;;;;;5082366;28;20028;-42
2023/05/24 08:45:17;;;;;;;6.95;2.50;;;14.70;99.90;;;;;;5081697;28;20069;-42
2023/05/24 08:47:42;;;;;;;7.95;2.47;;;14.70;99.90;;;;;;5080843;28;20112;-41
2023/05/24 08:50:08;;;;;;;6.00;2.17;;;14.80;99.90;;;;;;5080576;28;20059;-43
2023/05/24 08:52:34;;;;;;;10.25;3.20;;;14.80;99.90;;;;;;5081224;28;20028;-42
2023/05/24 08:55:03;;;;;;;7.05;2.53;;;14.90;99.90;;;;;;5079860;28;20059;-42
2023/05/24 08:57:33;;;;;;;5.97;2.22;;;14.90;99.90;;;;;;5080827;28;20141;-42
2023/05/24 08:59:59;;;;;;;8.50;2.72;;;14.90;99.90;;;;;;5080637;28;20051;-42
2023/05/24 09:02:35;;;;;;;8.07;2.60;;;15.00;99.90;;;;;;5079719;28;20032;-42
2023/05/24 09:05:01;;;;;;;6.28;2.30;;;15.10;99.90;;;;;;5081016;28;20408;-43
2023/05/24 09:07:28;;;;;;;6.90;2.38;;;15.20;99.90;;;;;;5079697;28;20441;-41
2023/05/24 09:09:59;;;;;;;7.97;2.17;;;15.30;99.90;;;;;;5066929;28;20039;-43
2023/05/24 09:12:28;;;;;;;4.83;2.17;;;15.40;99.90;;;;;;5078357;28;20036;-43
2023/05/24 09:14:57;;;;;;;7.82;2.45;;;15.50;99.90;;;;;;5079944;28;20369;-43
2023/05/24 09:17:22;;;;;;;6.97;3.10;;;15.50;99.90;;;;;;5081215;28;20058;-41
2023/05/24 09:19:50;;;;;;;7.80;2.58;;;15.60;99.90;;;;;;5085167;28;20582;-44
2023/05/24 09:22:22;;;;;;;9.88;2.65;;;15.60;99.90;;;;;;5083909;28;20019;-43
2023/05/24 09:24:48;;;;;;;6.27;2.50;;;15.50;99.90;;;;;;5084371;28;20055;-42
2023/05/24 09:27:21;;;;;;;7.10;2.63;;;15.50;99.90;;;;;;5085010;28;20584;-42
2023/05/24 09:29:48;;;;;;;8.32;2.53;;;15.40;99.90;;;;;;5083816;28;20077;-41
2023/05/24 09:32:23;;;;;;;6.35;2.47;;;15.40;99.90;;;;;;5082683;28;20028;-42
2023/05/24 09:34:52;;;;;;;5.72;2.67;;;15.40;99.90;;;;;;5077876;28;20032;-43
2023/05/24 09:37:21;;;;;;;7.90;2.72;;;15.50;99.90;;;;;;5081214;28;20153;-41
2023/05/24 09:39:49;;;;;;;5.80;2.28;;;15.40;99.90;;;;;;5064366;28;20131;-40
2023/05/24 09:42:26;;;;;;;5.72;2.38;;;15.30;99.90;;;;;;5078576;28;20020;-43
2023/05/24 09:45:11;;;;;;;8.38;2.58;;;15.30;99.90;;;;;;5084195;28;20081;-42
2023/05/24 09:47:39;;;;;;;8.98;2.67;;;15.30;99.90;;;;;;5080866;28;20039;-42
2023/05/24 09:50:10;;;;;;;7.40;2.28;;;15.30;99.90;;;;;;5084908;28;20055;-42
2023/05/24 09:52:36;;;;;;;5.88;2.00;;;15.20;99.90;;;;;;5083004;28;20047;-42
2023/05/24 09:55:12;;;;;;;6.68;2.33;;;15.20;99.90;;;;;;5085103;28;20804;-43
2023/05/24 09:57:38;;;;;;;8.35;2.70;;;15.20;99.90;;;;;;5083523;28;20140;-42
2023/05/24 10:00:16;;;;;;;10.55;2.78;;;15.20;99.90;;;;;;5084204;28;20032;-41
2023/05/24 10:02:42;;;;;;;5.45;2.40;;;15.10;99.90;;;;;;5083400;28;20753;-41
2023/05/24 10:05:11;;;;;;;4.60;1.73;;;15.10;99.90;;;;;;5083867;28;20031;-42
2023/05/24 10:07:37;;;;;;;5.22;1.70;;;15.10;99.90;;;;;;5083603;28;20139;-42
2023/05/24 10:10:04;;;;;;;5.88;1.88;;;15.20;99.90;;;;;;5081087;28;20088;-42
2023/05/24 10:12:32;;;;;;;8.85;2.40;;;15.20;99.90;;;;;;5082394;28;20477;-42
2023/05/24 10:14:59;;;;;;;3.83;1.80;;;15.30;99.90;;;;;;5073581;28;20562;-40
2023/05/24 10:17:27;;;;;;;3.70;1.92;;;15.40;99.90;;;;;;5077810;28;20103;-42
2023/05/24 10:19:53;;;;;;;4.88;1.98;;;15.40;99.90;;;;;;5083653;28;20028;-43
2023/05/24 10:22:21;;;;;;;6.07;2.25;;;15.50;99.90;;;;;;5079912;28;20048;-43
2023/05/24 10:24:52;;;;;;;6.20;1.85;;;15.50;99.90;;;;;;5081299;28;20024;-41
2023/05/24 10:27:23;;;;;;;4.90;1.90;;;15.60;99.90;;;;;;5082291;28;20036;-41
2023/05/24 10:30:13;;;;;;;5.55;2.05;;;15.60;99.90;;;;;;5082644;28;20068;-42
2023/05/24 10:32:44;;;;;;;4.38;1.83;;;15.60;99.90;;;;;;5081586;28;20032;-43
2023/05/24 10:35:17;;;;;;;4.00;1.92;;;15.70;99.90;;;;;;5082805;28;20589;-42
2023/05/24 10:37:46;;;;;;;4.18;1.75;;;15.80;99.90;;;;;;5083412;28;20906;-42
2023/05/24 10:40:21;;;;;;;3.92;1.75;;;15.90;99.90;;;;;;5079804;28;20012;-40
2023/05/24 10:42:47;;;;;;;4.55;1.98;;;15.90;99.90;;;;;;5083389;28;20187;-42
2023/05/24 10:45:34;;;;;;;5.45;1.80;;;15.90;99.90;;;;;;5076843;28;20488;-42
2023/05/24 10:48:12;;;;;;;5.60;2.17;;;15.90;99.90;;;;;;5082110;28;20123;-43
2023/05/24 10:50:38;;;;;;;4.68;1.85;;;16.00;99.90;;;;;;5083726;28;20044;-42
2023/05/24 10:53:17;;;;;;;5.63;2.13;;;15.90;99.90;;;;;;5083812;28;20611;-41
2023/05/24 10:56:00;;;;;;;6.50;1.80;;;15.90;99.90;;;;;;5081235;28;20044;-42
2023/05/24 10:58:46;;;;;;;;;;;15.90;99.90;;;;;;5083213;28;20048;-42
2023/05/24 11:01:28;;;;;;;6.18;2.10;;;16.00;99.90;;;;;;5059535;28;19911;-42
2023/05/24 11:04:13;;;;;;;4.35;1.90;;;16.10;99.90;;;;;;5081093;28;20031;-41
2023/05/24 11:06:54;;;;;;;5.05;2.05;;;16.20;99.90;;;;;;5082454;28;20031;-41
2023/05/24 11:09:21;;;;;;;6.65;2.05;;;16.10;99.90;;;;;;5081371;28;20856;-41
2023/05/24 11:11:48;;;;;;;6.38;2.28;;;16.20;99.90;;;;;;5082698;28;20639;-43
2023/05/24 11:14:18;;;;;;;5.82;2.00;;;16.30;99.70;;;;;;5082613;28;20016;-41
2023/05/24 11:16:45;;;;;;;7.13;2.65;;;16.30;99.90;;;;;;5083258;28;20040;-41
2023/05/24 11:19:12;;;;;;;7.22;2.55;;;16.50;99.80;;;;;;5083575;28;20024;-42
2023/05/24 11:21:40;;;;;;;4.82;2.30;;;16.60;99.50;;;;;;5082599;28;20031;-43
2023/05/24 11:24:09;;;;;;;6.05;1.90;;;16.80;99.10;;;;;;5083020;28;20088;-39
2023/05/24 11:26:35;;;;;;;6.10;2.60;;;16.80;99.10;;;;;;5078794;28;20020;-43
2023/05/24 11:29:00;;;;;;;5.25;2.05;;;16.90;98.90;;;;;;5081767;28;20047;-42
2023/05/24 11:31:26;;;;;;;6.88;2.00;;;17.00;99.00;;;;;;5077286;28;20391;-41
2023/05/24 11:33:53;;;;;;;6.10;2.03;;;17.10;99.00;;;;;;5080251;28;20781;-43
2023/05/24 11:36:19;;;;;;;5.63;2.15;;;17.30;98.90;;;;;;5081514;28;20024;-42
2023/05/24 11:38:46;;;;;;;4.95;2.17;;;17.30;98.40;;;;;;5080266;28;20012;-43
2023/05/24 11:41:12;;;;;;;4.28;1.92;;;17.30;98.40;;;;;;5074075;28;20037;-43
2023/05/24 11:43:38;;;;;;;6.05;2.20;;;17.30;98.40;;;;;;5079205;28;20047;-45
2023/05/24 11:46:03;;;;;;;4.70;2.00;;;17.30;97.80;;;;;;5079045;28;20076;-41
2023/05/24 11:48:32;;;;;;;5.88;2.28;;;17.20;97.70;;;;;;5080456;28;20031;-42
2023/05/24 11:50:58;;;;;;;4.95;2.40;;;17.20;97.80;;;;;;5082095;28;20032;-41
2023/05/24 11:53:24;;;;;;;5.05;2.05;;;17.20;97.60;;;;;;5078473;28;20840;-42
2023/05/24 11:55:53;;;;;;;7.85;2.80;;;17.20;97.70;;;;;;5081740;28;20049;-42
2023/05/24 11:58:22;;;;;;;6.10;1.95;;;17.30;97.40;;;;;;5082748;28;20592;-41
2023/05/24 12:00:47;;;;;;;7.45;3.05;;;17.30;97.30;;;;;;5081942;28;20320;-42
2023/05/24 12:03:13;;;;;;;6.60;2.22;;;17.30;96.70;;;;;;5082133;28;20471;-42
2023/05/24 12:05:38;;;;;;;7.95;2.65;;;17.30;96.90;;;;;;5071451;28;20035;-42
2023/05/24 12:08:06;;;;;;;4.78;2.22;;;17.30;96.90;;;;;;5082138;28;20824;-41
2023/05/24 12:10:37;;;;;;;7.97;2.25;;;17.30;96.70;;;;;;5083926;28;20036;-41
2023/05/24 12:13:04;;;;;;;7.55;2.38;;;17.20;96.80;;;;;;5080291;28;20040;-41
2023/05/24 12:15:30;;;;;;;6.22;2.38;;;17.20;97.00;;;;;;5079844;28;20418;-42
2023/05/24 12:17:57;;;;;;;6.28;2.55;;;17.20;96.80;;;;;;5081582;28;20129;-42
2023/05/24 12:20:23;;;;;;;7.22;2.35;;;17.20;96.80;;;;;;5081986;28;20063;-42
2023/05/24 12:22:51;;;;;;;5.45;2.15;;;17.20;96.80;;;;;;5080071;28;20040;-42
2023/05/24 12:25:20;;;;;;;5.93;2.35;;;17.30;97.00;;;;;;5060803;28;20041;-43
2023/05/24 12:27:55;;;;;;;8.10;3.33;;;17.30;96.90;;;;;;5075919;28;20028;-43
2023/05/24 12:30:22;;;;;;;5.78;2.25;;;17.30;96.40;;;;;;5081647;28;20043;-43
2023/05/24 12:32:48;;;;;;;4.15;1.92;;;17.20;96.30;;;;;;5080472;28;20486;-42
2023/05/24 12:35:16;;;;;;;6.13;2.35;;;17.20;96.40;;;;;;5081598;28;20031;-42
2023/05/24 12:37:42;;;;;;;6.10;2.10;;;17.30;95.90;;;;;;5079264;28;20028;-41
2023/05/24 12:40:19;;;;;;;4.30;1.80;;;17.30;96.10;;;;;;5079341;28;20035;-42
2023/05/24 12:42:56;;;;;;;6.63;2.42;;;17.30;95.80;;;;;;5080660;28;20028;-40
2023/05/24 12:45:26;;;;;;;6.15;2.38;;;17.20;95.90;;;;;;5079894;28;20031;-42
2023/05/24 12:47:56;;;;;;;4.97;2.38;;;17.10;96.00;;;;;;5080517;28;20055;-42
2023/05/24 12:50:24;;;;;;;7.35;2.80;;;17.10;96.20;;;;;;5080591;28;20036;-42
2023/05/24 12:52:51;;;;;;;7.28;2.50;;;17.00;96.30;;;;;;5080201;28;20383;-42
2023/05/24 12:55:25;;;;;;;6.50;2.50;;;16.90;96.50;;;;;;5081696;28;20153;-42